Time;durP1;ratioP1;P1;durP2;ratioP2;P2;SDS_P1;SDS_P2;PMS_P1;PMS_P2;Temp;Humidity;BMP_temperature;BMP_pressure;BME280_temperature;BME280_humidity;BME280_pressure;Samples;Min_cycle;Max_cycle;Signal;HPM_P1;HPM_P2
2023/06/30 00:02:18;;;;;;;6.28;5.68;;;;;;;16.72;60.75;95082.78;5164051;27;20055;-86
2023/06/30 00:04:43;;;;;;;6.28;5.68;;;;;;;16.61;60.57;95081.78;5149747;27;20019;-88
2023/06/30 00:07:09;;;;;;;6.40;5.50;;;;;;;16.56;60.12;95079.63;5150857;27;20560;-87
2023/06/30 00:09:35;;;;;;;6.38;5.57;;;;;;;16.57;59.87;95087.47;5149855;27;20494;-87
2023/06/30 00:12:00;;;;;;;5.97;5.10;;;;;;;16.52;60.13;95085.38;5149337;27;20119;-88
2023/06/30 00:14:26;;;;;;;7.57;5.70;;;;;;;16.49;59.95;95088.31;5139373;27;20068;-87
2023/06/30 00:16:51;;;;;;;6.25;5.65;;;;;;;16.44;60.23;95087.72;5151030;27;20678;-87
2023/06/30 00:19:17;;;;;;;7.57;5.55;;;;;;;16.45;60.34;95091.25;5150465;27;20031;-86
2023/06/30 00:21:43;;;;;;;11.70;6.30;;;;;;;16.43;60.42;95088.97;5151662;27;20030;-87
2023/06/30 00:24:10;;;;;;;5.65;5.15;;;;;;;16.42;60.64;95089.44;5149628;27;20022;-87
2023/06/30 00:26:36;;;;;;;6.38;5.78;;;;;;;16.39;60.89;95082.06;5138162;27;20027;-88
2023/06/30 00:29:01;;;;;;;8.68;7.03;;;;;;;16.39;61.32;95087.59;5145632;27;20030;-87
2023/06/30 00:31:27;;;;;;;6.28;5.68;;;;;;;16.34;61.46;95085.47;5150296;27;20050;-88
2023/06/30 00:33:53;;;;;;;6.75;6.00;;;;;;;16.32;61.48;95082.41;5129669;27;20027;-88
2023/06/30 00:36:18;;;;;;;6.40;5.55;;;;;;;16.31;61.26;95078.88;5149695;27;20041;-88
2023/06/30 00:38:44;;;;;;;6.10;5.50;;;;;;;16.29;61.22;95083.38;5151078;27;20056;-86
2023/06/30 00:41:10;;;;;;;6.53;5.93;;;;;;;16.23;60.73;95088.78;5148055;27;20041;-87
2023/06/30 00:43:36;;;;;;;5.72;5.22;;;;;;;16.23;60.79;95093.53;5143952;27;20027;-87
2023/06/30 00:46:02;;;;;;;6.93;6.07;;;;;;;16.20;60.88;95092.50;5138982;27;20030;-87
2023/06/30 00:48:28;;;;;;;6.38;5.78;;;;;;;16.19;60.58;95093.72;5131034;27;20030;-86
2023/06/30 00:50:54;;;;;;;6.78;5.63;;;;;;;16.20;60.60;95087.72;5150291;27;20123;-86
2023/06/30 00:53:19;;;;;;;8.18;5.72;;;;;;;16.14;60.69;95089.59;5126063;27;20042;-88
2023/06/30 00:55:45;;;;;;;6.60;5.43;;;;;;;16.13;60.46;95090.81;5149901;27;20022;-88
2023/06/30 00:58:10;;;;;;;6.72;5.45;;;;;;;16.13;60.22;95090.06;5146879;27;20514;-87
2023/06/30 01:00:36;;;;;;;6.25;5.70;;;;;;;16.10;60.60;95083.44;5149311;27;20424;-87
2023/06/30 01:03:15;;;;;;;7.90;5.45;;;;;;;16.10;60.47;95085.44;5148398;27;20054;-87
2023/06/30 01:05:52;;;;;;;8.55;5.60;;;;;;;16.06;60.54;95082.09;5136272;27;20052;-86
2023/06/30 01:08:30;;;;;;;6.00;5.45;;;;;;;16.05;60.09;95083.31;5151909;27;20496;-87
2023/06/30 01:10:56;;;;;;;5.93;5.40;;;;;;;16.00;60.30;95087.50;5147581;27;20026;-87
2023/06/30 01:13:22;;;;;;;5.82;5.20;;;;;;;16.01;60.45;95091.81;5141955;27;20034;-87
2023/06/30 01:15:48;;;;;;;5.90;5.40;;;;;;;16.00;60.34;95087.50;5132951;27;20027;-87
2023/06/30 01:18:15;;;;;;;6.20;5.60;;;;;;;15.97;60.50;95080.13;5129191;27;20019;-88
2023/06/30 01:20:41;;;;;;;6.70;6.03;;;;;;;15.98;60.57;95081.66;5129490;27;20031;-87
2023/06/30 01:23:17;;;;;;;6.68;5.53;;;;;;;15.97;60.91;95087.66;5131316;27;20102;-88
2023/06/30 01:25:43;;;;;;;6.28;5.45;;;;;;;15.92;61.25;95073.19;5148888;27;20555;-88
2023/06/30 01:28:09;;;;;;;6.03;5.53;;;;;;;15.94;61.28;95075.50;5138805;27;20089;-88
2023/06/30 01:30:36;;;;;;;6.07;5.55;;;;;;;15.92;61.31;95067.66;5130138;27;20050;-88
2023/06/30 01:33:01;;;;;;;6.00;5.40;;;;;;;15.89;61.51;95065.06;5151865;27;20508;-87
2023/06/30 01:35:27;;;;;;;6.35;5.55;;;;;;;15.88;61.50;95063.50;5134769;27;20027;-88
2023/06/30 01:37:54;;;;;;;7.90;7.07;;;;;;;15.88;61.71;95077.38;5145124;27;20038;-87
2023/06/30 01:40:20;;;;;;;7.28;5.65;;;;;;;15.80;62.04;95063.09;5131570;27;20080;-87
2023/06/30 01:42:46;;;;;;;7.57;6.35;;;;;;;15.80;62.18;95062.31;5127886;27;20524;-88
2023/06/30 01:45:12;;;;;;;8.45;6.22;;;;;;;15.77;62.14;95055.72;5126878;27;20481;-86
2023/06/30 01:47:37;;;;;;;6.40;5.80;;;;;;;15.78;61.94;95059.25;5134086;27;20026;-86
2023/06/30 01:50:03;;;;;;;7.18;5.88;;;;;;;15.74;61.88;95066.97;5148015;27;20030;-88
2023/06/30 01:52:29;;;;;;;6.55;5.95;;;;;;;15.74;61.97;95056.63;5148565;27;20023;-87
2023/06/30 01:54:54;;;;;;;7.95;5.97;;;;;;;15.71;62.04;95054.03;5133274;27;20034;-86
2023/06/30 01:57:19;;;;;;;7.43;6.47;;;;;;;15.63;62.27;95059.91;5134721;27;20114;-87
2023/06/30 01:59:45;;;;;;;6.88;5.97;;;;;;;15.62;62.47;95055.59;5149457;27;20038;-87
2023/06/30 02:02:11;;;;;;;7.78;6.18;;;;;;;15.59;62.34;95064.03;5136172;27;20051;-86
2023/06/30 02:04:36;;;;;;;7.05;6.38;;;;;;;15.50;62.42;95053.00;5124569;27;20031;-88
2023/06/30 02:07:02;;;;;;;7.10;6.35;;;;;;;15.53;62.38;95057.59;5132307;27;20033;-88
2023/06/30 02:09:27;;;;;;;7.38;6.70;;;;;;;15.48;62.38;95058.22;5140236;27;20389;-87
2023/06/30 02:11:53;;;;;;;9.80;6.97;;;;;;;15.44;62.58;95063.94;5136050;27;20146;-88
2023/06/30 02:14:18;;;;;;;7.97;7.18;;;;;;;15.43;62.89;95065.19;5149341;27;20099;-88
2023/06/30 02:16:43;;;;;;;7.35;6.60;;;;;;;15.38;63.13;95069.34;5142251;27;20066;-88
2023/06/30 02:19:09;;;;;;;10.95;7.60;;;;;;;15.39;63.16;95076.41;5131608;27;20039;-87
2023/06/30 02:21:34;;;;;;;7.30;6.30;;;;;;;15.36;62.92;95063.47;5130646;27;20075;-88
2023/06/30 02:24:00;;;;;;;7.40;6.30;;;;;;;15.35;62.77;95063.97;5134964;27;20551;-87
2023/06/30 02:26:25;;;;;;;7.25;6.50;;;;;;;15.31;62.66;95075.22;5128361;27;20031;-88
2023/06/30 02:28:51;;;;;;;6.97;6.32;;;;;;;15.28;62.70;95075.38;5147198;27;20035;-88
2023/06/30 02:31:16;;;;;;;6.65;5.45;;;;;;;15.30;62.61;95076.41;5147667;27;20022;-88
2023/06/30 02:33:42;;;;;;;6.63;6.03;;;;;;;15.30;62.71;95067.34;5146000;27;20133;-89
2023/06/30 02:36:07;;;;;;;8.68;6.70;;;;;;;15.26;62.72;95066.75;5142784;27;20027;-87
2023/06/30 02:38:32;;;;;;;5.90;5.32;;;;;;;15.24;62.76;95069.97;5148917;27;20114;-88
2023/06/30 02:40:58;;;;;;;8.65;6.38;;;;;;;15.23;62.82;95071.22;5148129;27;20022;-89
2023/06/30 02:43:23;;;;;;;7.07;6.10;;;;;;;15.19;62.96;95070.59;5133022;27;20026;-88
2023/06/30 02:45:49;;;;;;;6.25;5.63;;;;;;;15.17;63.06;95083.38;5134428;27;20086;-89
2023/06/30 02:48:14;;;;;;;7.05;6.35;;;;;;;15.12;63.41;95066.16;5145128;27;20035;-88
2023/06/30 02:50:39;;;;;;;6.00;5.40;;;;;;;15.11;63.17;95067.38;5140427;27;20025;-87
2023/06/30 02:53:05;;;;;;;6.95;6.07;;;;;;;15.07;63.49;95069.53;5137559;27;20066;-88
2023/06/30 02:55:32;;;;;;;9.45;6.65;;;;;;;15.07;63.49;95069.53;5126201;27;20573;-88
2023/06/30 02:57:58;;;;;;;7.35;6.65;;;;;;;15.06;63.59;95067.22;5149082;27;20027;-87
2023/06/30 03:00:23;;;;;;;9.18;6.63;;;;;;;15.03;63.68;95066.16;5148406;27;20411;-88
2023/06/30 03:02:48;;;;;;;7.68;6.18;;;;;;;15.01;63.63;95067.84;5138990;27;20331;-89
2023/06/30 03:05:14;;;;;;;6.85;6.25;;;;;;;14.96;64.15;95066.47;5130636;27;20027;-87
2023/06/30 03:07:39;;;;;;;8.77;6.07;;;;;;;14.99;63.94;95065.56;5136393;27;20447;-88
2023/06/30 03:10:05;;;;;;;7.25;6.55;;;;;;;14.98;64.00;95064.03;5145235;27;20022;-90
2023/06/30 03:12:30;;;;;;;6.85;6.18;;;;;;;14.94;64.14;95063.41;5146121;27;20427;-88
2023/06/30 03:14:56;;;;;;;8.48;6.80;;;;;;;14.92;64.03;95063.09;5148661;27;20037;-87
2023/06/30 03:17:21;;;;;;;7.45;6.75;;;;;;;14.89;63.96;95050.16;5147031;27;20027;-88
2023/06/30 03:19:47;;;;;;;7.65;6.95;;;;;;;14.93;63.93;95056.31;5146450;27;20507;-88
2023/06/30 03:22:12;;;;;;;9.40;6.40;;;;;;;14.92;63.83;95063.09;5116745;27;20067;-86
2023/06/30 03:24:38;;;;;;;12.23;7.20;;;;;;;14.95;63.42;95066.94;5142207;27;20026;-89
2023/06/30 03:27:04;;;;;;;8.38;6.13;;;;;;;14.98;63.40;95063.25;5145931;27;20480;-88
2023/06/30 03:29:29;;;;;;;8.32;6.15;;;;;;;14.99;63.12;95057.25;5146102;27;20538;-89
2023/06/30 03:31:55;;;;;;;7.75;6.65;;;;;;;14.98;63.26;95063.25;5147070;27;20121;-87
2023/06/30 03:34:20;;;;;;;10.45;7.28;;;;;;;14.98;63.30;95063.25;5132149;27;20442;-89
2023/06/30 03:36:46;;;;;;;6.97;6.35;;;;;;;14.95;63.18;95067.69;5146059;27;20408;-83
2023/06/30 03:39:11;;;;;;;10.05;6.43;;;;;;;14.93;63.43;95063.88;5148898;27;20110;-87
2023/06/30 03:41:37;;;;;;;7.60;6.78;;;;;;;14.92;63.65;95067.88;5140792;27;20094;-87
2023/06/30 03:44:02;;;;;;;9.27;6.90;;;;;;;14.93;63.58;95070.16;5151880;27;20507;-85
2023/06/30 03:46:28;;;;;;;8.27;7.13;;;;;;;14.90;63.58;95067.53;5150647;27;20076;-86
2023/06/30 03:48:53;;;;;;;7.72;6.88;;;;;;;14.92;63.63;95065.88;5132239;27;21700;-83
2023/06/30 03:51:18;;;;;;;10.40;7.25;;;;;;;14.88;63.90;95066.00;5143723;27;20031;-85
2023/06/30 03:53:44;;;;;;;7.82;6.95;;;;;;;14.86;63.75;95059.41;5146097;27;20051;-85
2023/06/30 03:56:10;;;;;;;9.65;7.00;;;;;;;14.87;63.82;95067.25;5152294;27;20076;-85
2023/06/30 03:58:35;;;;;;;7.43;6.40;;;;;;;14.88;63.58;95066.00;5117087;27;20379;-83
2023/06/30 04:01:01;;;;;;;7.22;6.50;;;;;;;14.86;63.67;95074.03;5131051;27;20020;-84
2023/06/30 04:03:26;;;;;;;7.75;6.45;;;;;;;14.88;63.67;95073.56;5151264;27;20035;-83
2023/06/30 04:05:53;;;;;;;9.73;6.90;;;;;;;14.91;63.60;95080.94;5151071;27;20019;-84
2023/06/30 04:08:18;;;;;;;12.30;7.05;;;;;;;14.89;63.50;95075.09;5150471;27;20024;-83
2023/06/30 04:10:44;;;;;;;7.55;6.65;;;;;;;14.91;63.47;95074.63;5153013;27;20030;-82
2023/06/30 04:13:09;;;;;;;7.72;6.38;;;;;;;14.99;63.15;95081.41;5139428;27;20055;-83
2023/06/30 04:15:35;;;;;;;7.55;6.53;;;;;;;14.98;63.48;95077.84;5151245;27;20027;-83
2023/06/30 04:18:00;;;;;;;8.23;6.78;;;;;;;15.01;63.58;95076.16;5150649;27;20022;-83
2023/06/30 04:20:26;;;;;;;8.35;6.57;;;;;;;14.99;63.83;95071.09;5149691;27;20437;-85
2023/06/30 04:22:51;;;;;;;7.97;7.20;;;;;;;14.96;63.53;95062.94;5145991;27;20119;-85
2023/06/30 04:25:17;;;;;;;10.18;6.68;;;;;;;15.05;63.81;95079.53;5140520;27;20030;-84
2023/06/30 04:27:43;;;;;;;8.32;7.05;;;;;;;15.05;63.54;95074.78;5148394;27;20027;-84
2023/06/30 04:30:09;;;;;;;10.88;6.97;;;;;;;15.13;63.54;95073.22;5145657;27;20031;-84
2023/06/30 04:32:34;;;;;;;10.70;8.10;;;;;;;15.12;63.96;95068.91;5141549;27;20038;-83
2023/06/30 04:35:00;;;;;;;7.82;6.85;;;;;;;15.17;63.71;95066.75;5149811;27;20030;-85
2023/06/30 04:37:31;;;;;;;9.25;6.97;;;;;;;15.19;63.85;95065.06;5150195;27;20033;-86
2023/06/30 04:39:57;;;;;;;9.13;7.28;;;;;;;15.19;63.88;95065.06;5145332;27;20026;-85
2023/06/30 04:42:23;;;;;;;8.80;7.63;;;;;;;15.18;63.92;95074.59;5149918;27;20062;-84
2023/06/30 04:44:49;;;;;;;8.57;7.78;;;;;;;15.24;64.14;95072.75;5153036;27;20075;-83
2023/06/30 04:47:17;;;;;;;10.70;7.75;;;;;;;15.27;63.87;95077.38;5130917;27;20411;-84
2023/06/30 04:49:43;;;;;;;9.52;7.78;;;;;;;15.30;63.63;95061.81;5139762;27;20053;-88
2023/06/30 04:52:08;;;;;;;9.93;7.93;;;;;;;15.33;63.77;95060.91;5157137;27;20540;-88
2023/06/30 04:54:34;;;;;;;11.85;8.45;;;;;;;15.41;63.92;95062.84;5160680;27;20022;-87
2023/06/30 04:56:59;;;;;;;9.82;7.72;;;;;;;15.43;63.90;95061.66;5159610;27;20429;-87
2023/06/30 04:59:24;;;;;;;11.32;8.25;;;;;;;15.45;63.60;95064.72;5152761;27;20388;-87
2023/06/30 05:01:50;;;;;;;12.30;7.97;;;;;;;15.50;63.70;95067.63;5153555;27;20078;-89
2023/06/30 05:04:16;;;;;;;15.60;8.77;;;;;;;15.54;63.49;95071.00;5128881;27;20055;-86
2023/06/30 05:06:41;;;;;;;10.65;7.90;;;;;;;15.58;63.29;95063.28;5135069;27;20023;-87
2023/06/30 05:09:07;;;;;;;9.88;8.00;;;;;;;15.61;63.58;95069.91;5148282;27;20057;-87
2023/06/30 05:11:32;;;;;;;9.05;8.10;;;;;;;15.59;63.48;95066.81;5150353;27;20011;-86
2023/06/30 05:13:57;;;;;;;9.95;7.88;;;;;;;15.64;63.29;95066.22;5145739;27;20022;-87
2023/06/30 05:16:23;;;;;;;8.90;8.00;;;;;;;15.70;63.24;95063.59;5151619;27;20514;-87
2023/06/30 05:18:48;;;;;;;8.93;7.68;;;;;;;15.80;62.65;95057.53;5150419;27;20030;-89
2023/06/30 05:21:14;;;;;;;10.75;7.80;;;;;;;15.80;62.30;95063.09;5151137;27;20022;-87
2023/06/30 05:23:39;;;;;;;8.82;7.15;;;;;;;15.86;62.36;95063.22;5150949;27;20034;-87
2023/06/30 05:26:05;;;;;;;7.82;7.13;;;;;;;15.94;62.10;95061.63;5150890;27;20105;-87
2023/06/30 05:28:31;;;;;;;10.50;8.20;;;;;;;15.96;62.45;95066.72;5134865;27;20038;-87
2023/06/30 05:30:56;;;;;;;9.80;8.35;;;;;;;16.01;62.40;95069.63;5134997;27;20549;-88
2023/06/30 05:33:21;;;;;;;9.10;7.40;;;;;;;16.04;62.43;95077.00;5152211;27;20419;-88
2023/06/30 05:35:47;;;;;;;9.85;7.28;;;;;;;16.11;62.40;95070.34;5150648;27;20018;-87
2023/06/30 05:38:12;;;;;;;8.18;7.35;;;;;;;16.22;61.92;95069.81;5151850;27;20058;-86
2023/06/30 05:40:38;;;;;;;11.55;7.90;;;;;;;16.22;61.70;95072.59;5149892;27;20026;-84
2023/06/30 05:43:03;;;;;;;7.50;6.75;;;;;;;16.26;61.65;95075.97;5148781;27;20087;-84
2023/06/30 05:45:29;;;;;;;8.85;7.50;;;;;;;16.29;61.73;95075.81;5149223;27;20023;-84
2023/06/30 05:47:54;;;;;;;11.07;8.10;;;;;;;16.37;61.64;95082.53;5148392;27;20480;-84
2023/06/30 05:50:22;;;;;;;8.50;7.63;;;;;;;16.43;61.53;95088.97;5150557;27;20027;-85
2023/06/30 05:52:48;;;;;;;16.48;8.20;;;;;;;16.54;61.00;95085.66;5147705;27;20052;-88
2023/06/30 05:55:13;;;;;;;11.38;7.78;;;;;;;16.55;61.02;95080.88;5149436;27;20476;-89
2023/06/30 05:57:39;;;;;;;10.45;8.90;;;;;;;16.60;60.84;95083.00;5148809;27;20081;-87
2023/06/30 06:00:07;;;;;;;11.18;8.10;;;;;;;16.71;60.11;95086.06;5148881;27;20026;-89
2023/06/30 06:02:33;;;;;;;11.43;8.57;;;;;;;16.70;60.38;95082.50;5148477;27;20045;-86
2023/06/30 06:04:58;;;;;;;11.60;9.63;;;;;;;16.74;60.42;95079.53;5149162;27;20015;-88
2023/06/30 06:07:24;;;;;;;11.57;9.30;;;;;;;16.79;60.62;95086.44;5150424;27;20082;-87
2023/06/30 06:09:49;;;;;;;11.18;8.55;;;;;;;16.84;60.59;95083.78;5147026;27;20217;-87
2023/06/30 06:12:15;;;;;;;11.63;9.75;;;;;;;16.88;60.59;95083.63;5147683;27;20027;-87
2023/06/30 06:14:41;;;;;;;10.57;9.30;;;;;;;16.93;60.61;95089.28;5146872;27;20855;-87
2023/06/30 06:17:06;;;;;;;13.85;9.55;;;;;;;17.04;60.30;95085.19;5150993;27;20485;-85
2023/06/30 06:19:32;;;;;;;15.02;10.48;;;;;;;17.08;60.29;95086.53;5149555;27;20102;-86
2023/06/30 06:21:57;;;;;;;13.50;8.88;;;;;;;17.14;59.49;95076.28;5148706;27;20057;-85
2023/06/30 06:24:23;;;;;;;11.20;9.07;;;;;;;17.13;59.37;95069.19;5149411;27;20057;-83
2023/06/30 06:26:48;;;;;;;12.77;8.75;;;;;;;17.27;60.09;95073.25;5130961;27;20019;-82
2023/06/30 06:29:18;;;;;;;15.05;9.48;;;;;;;17.43;60.28;95074.78;5148199;27;20074;-80
2023/06/30 06:31:45;;;;;;;10.13;9.10;;;;;;;17.57;59.65;95081.59;5148042;27;20054;-78
2023/06/30 06:34:11;;;;;;;12.77;8.23;;;;;;;17.67;59.51;95077.50;5149358;27;20038;-80
2023/06/30 06:36:37;;;;;;;9.05;8.15;;;;;;;17.70;58.97;95080.06;5148181;27;20018;-82
2023/06/30 06:39:02;;;;;;;10.65;8.30;;;;;;;17.76;58.94;95074.63;5149343;27;20030;-85
2023/06/30 06:41:28;;;;;;;10.45;8.90;;;;;;;17.88;58.85;95067.22;5147912;27;20015;-84
2023/06/30 06:43:53;;;;;;;11.15;8.57;;;;;;;17.94;58.98;95074.41;5148124;27;20026;-85
2023/06/30 06:46:18;;;;;;;12.68;9.00;;;;;;;18.03;58.78;95070.75;5131880;27;20062;-78
2023/06/30 06:48:44;;;;;;;11.60;9.95;;;;;;;18.13;58.92;95077.75;5148081;27;20412;-87
2023/06/30 06:51:09;;;;;;;10.27;8.57;;;;;;;18.20;58.46;95074.56;5149074;27;20049;-80
2023/06/30 06:53:35;;;;;;;13.13;9.20;;;;;;;18.33;58.32;95081.81;5148088;27;20018;-80
2023/06/30 06:56:01;;;;;;;18.10;11.88;;;;;;;18.46;57.38;95080.22;5147310;27;20507;-82
2023/06/30 06:58:40;;;;;;;13.57;10.23;;;;;;;18.53;57.11;95079.84;5147440;27;20173;-84
2023/06/30 07:01:06;;;;;;;13.43;9.50;;;;;;;18.64;57.00;95072.84;5147311;27;20038;-84
2023/06/30 07:03:32;;;;;;;12.27;8.48;;;;;;;18.76;56.47;95071.81;5147934;27;20047;-83
2023/06/30 07:05:58;;;;;;;10.55;8.25;;;;;;;18.80;56.51;95063.97;5147999;27;20539;-84
2023/06/30 07:08:24;;;;;;;10.02;7.68;;;;;;;18.90;55.83;95075.75;5149749;27;20450;-84
2023/06/30 07:10:50;;;;;;;14.15;9.60;;;;;;;18.98;56.24;95074.88;5147888;27;20023;-84
2023/06/30 07:13:18;;;;;;;10.90;9.38;;;;;;;19.08;55.63;95067.88;5150192;27;20026;-84
2023/06/30 07:15:45;;;;;;;13.48;9.10;;;;;;;19.21;55.03;95066.72;5150868;27;20019;-85
2023/06/30 07:18:10;;;;;;;9.50;8.50;;;;;;;19.29;55.03;95062.25;5153130;27;20174;-85
2023/06/30 07:20:36;;;;;;;15.27;8.25;;;;;;;19.39;55.46;95058.06;5153125;27;20023;-86
2023/06/30 07:23:01;;;;;;;9.27;7.40;;;;;;;19.54;54.92;95061.50;5152319;27;20045;-85
2023/06/30 07:25:27;;;;;;;8.55;7.70;;;;;;;19.58;54.73;95058.50;5153192;27;20449;-85
2023/06/30 07:27:56;;;;;;;8.85;7.82;;;;;;;19.68;54.20;95051.53;5151185;27;20063;-85
2023/06/30 07:30:23;;;;;;;10.88;8.60;;;;;;;19.77;54.31;95059.69;5153083;27;20041;-87
2023/06/30 07:32:49;;;;;;;8.88;7.00;;;;;;;19.90;54.23;95053.72;5150315;27;20030;-86
2023/06/30 07:35:18;;;;;;;8.85;7.13;;;;;;;20.00;53.54;95051.50;5153108;27;20426;-84
2023/06/30 07:37:47;;;;;;;8.95;7.07;;;;;;;20.10;52.84;95052.84;5151374;27;20083;-85
2023/06/30 07:40:13;;;;;;;13.60;8.35;;;;;;;20.21;52.03;95054.97;5150729;27;20042;-87
2023/06/30 07:42:39;;;;;;;9.95;7.85;;;;;;;20.31;50.53;95040.31;5151148;27;20507;-84
2023/06/30 07:45:09;;;;;;;8.65;6.80;;;;;;;20.42;50.08;95042.41;5152198;27;20015;-84
2023/06/30 07:47:35;;;;;;;8.32;6.53;;;;;;;20.46;49.32;95048.53;5153905;27;20023;-85
2023/06/30 07:50:01;;;;;;;10.45;6.72;;;;;;;20.54;50.99;95043.25;5152286;27;20077;-85
2023/06/30 07:52:27;;;;;;;6.70;5.80;;;;;;;20.59;51.18;95050.91;5152751;27;20447;-84
2023/06/30 07:54:55;;;;;;;6.53;5.82;;;;;;;20.64;50.77;95042.56;5150625;27;20015;-87
2023/06/30 07:57:24;;;;;;;7.05;5.25;;;;;;;20.80;50.05;95043.09;5151819;27;20027;-87
2023/06/30 07:59:50;;;;;;;8.10;4.47;;;;;;;20.89;48.67;95043.66;5150968;27;20023;-86
2023/06/30 08:02:17;;;;;;;5.07;4.38;;;;;;;20.99;47.59;95040.63;5149400;27;20416;-86
2023/06/30 08:04:43;;;;;;;4.97;4.07;;;;;;;21.02;46.94;95040.41;5152272;27;20434;-87
2023/06/30 08:07:08;;;;;;;8.02;4.40;;;;;;;21.09;47.13;95037.09;5149814;27;20059;-87
2023/06/30 08:09:33;;;;;;;5.40;4.20;;;;;;;21.17;47.16;95040.19;5152195;27;20026;-87
2023/06/30 08:11:59;;;;;;;4.43;3.88;;;;;;;21.27;46.27;95047.06;5151038;27;20506;-85
2023/06/30 08:14:24;;;;;;;5.18;4.03;;;;;;;21.35;46.61;95036.97;5151765;27;20054;-86
2023/06/30 08:16:49;;;;;;;5.50;3.80;;;;;;;21.42;46.12;95022.47;5152036;27;20025;-86
2023/06/30 08:19:15;;;;;;;5.15;4.65;;;;;;;21.57;46.50;95038.28;5151385;27;20038;-86
2023/06/30 08:21:40;;;;;;;7.22;5.65;;;;;;;21.69;46.57;95028.63;5152117;27;20068;-86
2023/06/30 08:24:06;;;;;;;5.57;4.82;;;;;;;21.83;46.34;95027.59;5151980;27;20071;-86
2023/06/30 08:26:31;;;;;;;7.05;4.63;;;;;;;21.98;46.25;95024.53;5150755;27;20122;-86
2023/06/30 08:28:56;;;;;;;6.05;4.40;;;;;;;22.06;44.96;95010.78;5149324;27;20403;-86
2023/06/30 08:31:22;;;;;;;6.57;4.30;;;;;;;22.15;44.61;95010.56;5152208;27;20018;-86
2023/06/30 08:33:47;;;;;;;5.00;4.47;;;;;;;22.27;44.85;95014.84;5151108;27;20159;-85
2023/06/30 08:36:13;;;;;;;3.35;2.97;;;;;;;22.43;41.37;95010.50;5150179;27;20018;-85
2023/06/30 08:38:38;;;;;;;3.65;2.67;;;;;;;22.46;42.02;95006.66;5150439;27;20023;-86
2023/06/30 08:41:04;;;;;;;4.35;3.42;;;;;;;22.49;41.57;94998.00;5150589;27;20041;-87
2023/06/30 08:43:31;;;;;;;6.43;3.25;;;;;;;22.56;42.30;94999.50;5151935;27;20033;-85
2023/06/30 08:45:59;;;;;;;7.13;4.15;;;;;;;22.66;42.77;95000.75;5150326;27;20050;-87
2023/06/30 08:48:24;;;;;;;5.80;4.57;;;;;;;22.71;42.70;94991.56;5150702;27;20564;-85
2023/06/30 08:50:52;;;;;;;7.75;4.45;;;;;;;22.86;42.73;94991.22;5150834;27;20390;-85
2023/06/30 08:53:18;;;;;;;5.57;4.75;;;;;;;22.96;42.38;94986.88;5150144;27;20057;-86
2023/06/30 08:55:45;;;;;;;4.82;3.70;;;;;;;23.11;42.14;94988.56;5151540;27;20050;-86
2023/06/30 08:58:12;;;;;;;5.03;3.38;;;;;;;23.17;40.96;94983.69;5149009;27;20026;-84
2023/06/30 09:00:37;;;;;;;5.53;3.50;;;;;;;23.30;39.81;94986.69;5151500;27;20449;-86
2023/06/30 09:03:06;;;;;;;10.48;6.22;;;;;;;23.39;39.09;94988.38;5148053;27;20049;-87
2023/06/30 09:05:33;;;;;;;7.15;5.15;;;;;;;23.42;39.55;94992.97;5151544;27;20023;-86
2023/06/30 09:07:58;;;;;;;12.55;7.53;;;;;;;23.57;40.14;94994.13;5148617;27;20068;-85
2023/06/30 09:10:26;;;;;;;17.38;9.98;;;;;;;23.69;38.96;94985.66;5150865;27;20053;-85
2023/06/30 09:12:54;;;;;;;16.77;9.82;;;;;;;23.88;37.68;94992.13;5149315;27;20030;-84
2023/06/30 09:15:20;;;;;;;8.35;5.63;;;;;;;23.97;37.44;94988.22;5148685;27;20027;-87
2023/06/30 09:17:46;;;;;;;7.03;4.63;;;;;;;24.08;38.24;94990.91;5149733;27;20109;-87
2023/06/30 09:20:12;;;;;;;7.97;5.15;;;;;;;24.19;38.10;94987.25;5148210;27;20026;-87
2023/06/30 09:22:43;;;;;;;5.13;4.25;;;;;;;24.29;37.75;94989.19;5149900;27;20564;-86
2023/06/30 09:25:26;;;;;;;4.90;3.90;;;;;;;24.48;36.24;94980.81;5148879;27;20160;-87
2023/06/30 09:27:55;;;;;;;8.02;3.67;;;;;;;24.54;36.30;94989.19;5150200;27;20098;-86
2023/06/30 09:30:35;;;;;;;4.60;3.20;;;;;;;24.61;36.04;94975.31;5149588;27;20033;-85
2023/06/30 09:33:01;;;;;;;5.72;3.85;;;;;;;24.73;36.13;94987.19;5150930;27;20023;-86
2023/06/30 09:35:35;;;;;;;5.80;3.60;;;;;;;24.80;35.95;94983.03;5152708;27;20023;-84
2023/06/30 09:38:01;;;;;;;4.95;4.22;;;;;;;24.90;36.30;94970.13;5154291;27;20086;-86
2023/06/30 09:40:26;;;;;;;6.03;3.80;;;;;;;24.98;36.05;94968.22;5152279;27;20113;-86
2023/06/30 09:42:55;;;;;;;7.60;3.35;;;;;;;25.06;36.30;94963.53;5149918;27;20030;-87
2023/06/30 09:45:21;;;;;;;6.22;3.30;;;;;;;25.24;36.27;94966.88;5150209;27;20027;-85
2023/06/30 09:47:53;;;;;;;4.43;3.60;;;;;;;25.39;36.48;94970.72;5150197;27;20477;-86
2023/06/30 09:50:24;;;;;;;5.00;4.00;;;;;;;25.60;35.22;94964.53;5149314;27;20015;-86
2023/06/30 09:52:50;;;;;;;7.78;4.15;;;;;;;25.72;34.68;94960.22;5150345;27;20059;-88
2023/06/30 09:55:16;;;;;;;5.03;4.00;;;;;;;25.85;35.28;94959.53;5148222;27;20491;-86
2023/06/30 09:57:43;;;;;;;5.65;4.10;;;;;;;26.00;34.42;94959.78;5149141;27;20018;-87
2023/06/30 10:00:13;;;;;;;8.13;3.65;;;;;;;26.14;34.39;94952.13;5149602;27;20054;-89
2023/06/30 10:02:40;;;;;;;4.95;3.55;;;;;;;26.26;34.28;94959.06;5149235;27;20042;-87
2023/06/30 10:05:06;;;;;;;5.10;3.65;;;;;;;26.42;34.90;94945.97;5148480;27;20082;-86
2023/06/30 10:07:32;;;;;;;5.18;3.92;;;;;;;26.55;34.76;94948.78;5148967;27;20031;-86
2023/06/30 10:09:59;;;;;;;5.25;3.17;;;;;;;26.67;35.19;94940.91;5150164;27;20026;-86
2023/06/30 10:12:25;;;;;;;5.38;3.63;;;;;;;26.83;34.76;94939.75;5148653;27;20034;-86
2023/06/30 10:14:51;;;;;;;4.03;3.53;;;;;;;26.99;34.66;94935.81;5148461;27;20027;-86
2023/06/30 10:17:18;;;;;;;4.93;3.60;;;;;;;27.09;34.83;94922.06;5149594;27;20023;-85
2023/06/30 10:19:43;;;;;;;8.27;4.18;;;;;;;27.23;35.32;94923.53;5130830;27;20045;-88
2023/06/30 10:22:09;;;;;;;5.65;4.18;;;;;;;27.39;34.56;94923.69;5149863;27;20540;-86
2023/06/30 10:24:37;;;;;;;4.55;4.15;;;;;;;27.50;34.26;94926.25;5147287;27;20075;-86
2023/06/30 10:27:09;;;;;;;6.63;4.38;;;;;;;27.60;34.47;94915.25;5149459;27;20501;-85
2023/06/30 10:29:34;;;;;;;7.28;4.63;;;;;;;27.66;34.61;94922.25;5148629;27;20027;-87
2023/06/30 10:32:00;;;;;;;6.80;4.63;;;;;;;27.83;34.15;94923.94;5148078;27;20029;-86
2023/06/30 10:34:27;;;;;;;6.63;3.95;;;;;;;27.96;33.71;94907.66;5129908;27;20408;-87
2023/06/30 10:36:52;;;;;;;5.32;4.13;;;;;;;28.02;33.19;94905.44;5147965;27;20019;-86
2023/06/30 10:39:18;;;;;;;10.60;4.40;;;;;;;28.15;33.43;94909.47;5147647;27;20026;-86
2023/06/30 10:41:49;;;;;;;9.02;4.50;;;;;;;28.22;33.32;94901.06;5147961;27;20649;-86
2023/06/30 10:44:19;;;;;;;6.03;4.05;;;;;;;28.38;32.41;94904.00;5148041;27;20690;-86
2023/06/30 10:46:46;;;;;;;5.10;3.80;;;;;;;28.46;31.44;94899.91;5148866;27;20106;-86
2023/06/30 10:49:27;;;;;;;4.72;4.13;;;;;;;28.53;32.44;94893.53;5148579;27;20081;-86
2023/06/30 10:51:54;;;;;;;7.57;3.95;;;;;;;28.69;31.81;94888.72;5148104;27;20532;-85
2023/06/30 10:54:22;;;;;;;5.57;3.70;;;;;;;28.82;32.43;94879.34;5147778;27;20605;-87
2023/06/30 10:56:49;;;;;;;6.45;4.05;;;;;;;28.97;32.47;94876.59;5149735;27;20030;-86
2023/06/30 10:59:23;;;;;;;6.85;4.18;;;;;;;29.06;31.84;94880.94;5148963;27;20764;-86
2023/06/30 11:02:17;;;;;;;8.00;4.15;;;;;;;29.11;31.58;94877.19;5147689;27;20069;-86
2023/06/30 11:04:45;;;;;;;6.22;4.22;;;;;;;29.18;31.79;94876.44;5140352;27;20035;-87
2023/06/30 11:07:33;;;;;;;5.80;4.00;;;;;;;29.23;30.92;94883.25;5149199;27;20030;-86
2023/06/30 11:10:00;;;;;;;5.07;4.28;;;;;;;29.24;31.38;94868.53;5149029;27;20030;-85
2023/06/30 11:12:27;;;;;;;6.28;4.28;;;;;;;29.35;31.20;94873.84;5148514;27;20581;-87
2023/06/30 11:14:58;;;;;;;5.38;3.90;;;;;;;29.49;31.70;94865.94;5147788;27;20091;-86
2023/06/30 11:17:25;;;;;;;7.22;3.50;;;;;;;29.63;30.72;94867.28;5150572;27;20027;-86
2023/06/30 11:20:12;;;;;;;4.55;3.85;;;;;;;29.75;30.70;94858.41;5153437;27;20087;-86
2023/06/30 11:22:39;;;;;;;7.03;3.72;;;;;;;29.77;30.05;94856.53;5151899;27;20359;-86
2023/06/30 11:25:11;;;;;;;6.75;4.63;;;;;;;29.79;29.95;94858.81;5150990;27;20034;-86
2023/06/30 11:27:37;;;;;;;5.05;3.67;;;;;;;29.82;30.26;94849.16;5150614;27;20114;-88
2023/06/30 11:30:04;;;;;;;10.57;4.30;;;;;;;29.87;30.07;94837.63;5147756;27;20496;-84